createdAt,value
2018-12-01T00:00:22.579Z,20.00
2018-12-01T00:02:53.921Z,17.05
2018-12-01T00:05:24.420Z,20.25
2018-12-01T00:07:55.805Z,19.35
2018-12-01T00:10:26.693Z,22.53
2018-12-01T00:12:57.624Z,17.07
2018-12-01T00:15:30.598Z,16.10
2018-12-01T00:18:01.842Z,24.47
2018-12-01T00:20:36.546Z,18.90
2018-12-01T00:23:08.396Z,15.05
2018-12-01T00:25:39.605Z,17.52
2018-12-01T00:28:12.596Z,16.97
2018-12-01T00:30:44.608Z,18.32
2018-12-01T00:33:16.164Z,17.57
2018-12-01T00:35:46.622Z,18.87
2018-12-01T00:38:17.574Z,19.52
2018-12-01T00:40:48.299Z,16.25
2018-12-01T00:43:18.920Z,17.32
2018-12-01T00:45:50.985Z,17.55
2018-12-01T00:48:22.670Z,16.80
2018-12-01T00:50:53.627Z,15.60
2018-12-01T00:53:24.480Z,13.50
2018-12-01T00:55:55.949Z,17.30
2018-12-01T00:58:26.896Z,18.50
2018-12-01T01:00:58.052Z,18.67
2018-12-01T01:03:29.145Z,23.12
2018-12-01T01:06:00.101Z,18.75
2018-12-01T01:08:31.089Z,21.00
2018-12-01T01:11:02.180Z,28.05
2018-12-01T01:13:32.852Z,25.82
2018-12-01T01:16:03.478Z,29.70
2018-12-01T01:18:34.515Z,18.67
2018-12-01T01:21:05.662Z,22.43
2018-12-01T01:23:36.206Z,22.32
2018-12-01T01:26:07.154Z,23.47
2018-12-01T01:28:38.246Z,23.40
2018-12-01T01:31:09.057Z,21.62
2018-12-01T01:33:40.368Z,20.30
2018-12-01T01:36:11.362Z,23.25
2018-12-01T01:38:42.103Z,18.37
2018-12-01T01:41:13.039Z,19.37
2018-12-01T01:43:44.197Z,16.23
2018-12-01T01:46:14.265Z,19.52
2018-12-01T01:48:45.175Z,24.87
2018-12-01T01:51:18.609Z,23.05
2018-12-01T01:53:50.879Z,21.80
2018-12-01T01:56:21.665Z,25.52
2018-12-01T01:58:52.430Z,21.82
2018-12-01T02:01:34.418Z,22.20
2018-12-01T02:04:05.691Z,20.60
2018-12-01T02:06:37.036Z,19.37
2018-12-01T02:09:09.470Z,18.67
2018-12-01T02:11:41.030Z,19.42
2018-12-01T02:14:11.715Z,20.67
2018-12-01T02:16:42.428Z,19.13
2018-12-01T02:19:13.213Z,18.87
2018-12-01T02:21:44.074Z,19.62
2018-12-01T02:24:15.294Z,18.07
2018-12-01T02:26:46.156Z,20.00
2018-12-01T02:29:16.659Z,20.12
2018-12-01T02:31:47.601Z,20.65
2018-12-01T02:34:18.730Z,16.17
2018-12-01T02:36:50.359Z,22.50
2018-12-01T02:39:21.667Z,20.48
2018-12-01T02:41:52.248Z,22.62
2018-12-01T02:44:41.299Z,19.37
2018-12-01T02:47:12.724Z,19.27
2018-12-01T02:49:43.961Z,15.70
2018-12-01T02:52:14.839Z,18.17
2018-12-01T02:54:45.607Z,21.12
2018-12-01T02:57:16.174Z,17.60
2018-12-01T02:59:47.272Z,19.82
2018-12-01T03:02:17.872Z,19.00
2018-12-01T03:04:49.199Z,18.57
2018-12-01T03:07:23.189Z,17.77
2018-12-01T03:09:53.925Z,17.23
2018-12-01T03:12:25.244Z,16.40
2018-12-01T03:14:56.208Z,19.43
2018-12-01T03:17:26.885Z,20.95
2018-12-01T03:19:57.783Z,20.00
2018-12-01T03:22:28.425Z,16.75
2018-12-01T03:24:59.516Z,16.03
2018-12-01T03:27:47.640Z,18.20
2018-12-01T03:30:24.082Z,18.23
2018-12-01T03:32:56.057Z,19.92
2018-12-01T03:35:27.146Z,19.57
2018-12-01T03:37:58.363Z,15.70
2018-12-01T03:40:33.087Z,16.30
2018-12-01T03:43:04.426Z,19.10
2018-12-01T03:45:41.274Z,17.12
2018-12-01T03:48:12.042Z,20.73
2018-12-01T03:50:42.920Z,14.87
2018-12-01T03:53:14.210Z,14.53
2018-12-01T03:55:45.314Z,14.45
2018-12-01T03:58:17.491Z,20.45
2018-12-01T04:00:48.180Z,20.72
2018-12-01T04:03:18.957Z,19.50
2018-12-01T04:05:50.008Z,19.70
2018-12-01T04:08:20.783Z,14.85
2018-12-01T04:10:51.292Z,16.20
2018-12-01T04:13:22.163Z,16.77
2018-12-01T04:15:52.927Z,17.55
2018-12-01T04:18:23.940Z,19.60
2018-12-01T04:20:55.040Z,22.07
2018-12-01T04:23:26.002Z,18.12
2018-12-01T04:25:56.695Z,18.87
2018-12-01T04:28:28.406Z,15.43
2018-12-01T04:30:59.009Z,18.40
2018-12-01T04:33:30.041Z,18.87
2018-12-01T04:36:01.600Z,14.47
2018-12-01T04:38:32.737Z,19.12
2018-12-01T04:41:03.742Z,19.10
2018-12-01T04:43:34.532Z,18.82
2018-12-01T04:46:05.619Z,25.17
2018-12-01T04:48:37.013Z,19.85
2018-12-01T04:51:08.386Z,16.73
2018-12-01T04:53:39.208Z,12.43
2018-12-01T04:56:10.114Z,16.80
2018-12-01T04:58:41.244Z,16.25
2018-12-01T05:01:12.093Z,20.75
2018-12-01T05:03:42.873Z,17.77
2018-12-01T05:06:13.679Z,18.48
2018-12-01T05:08:45.639Z,17.42
2018-12-01T05:11:16.920Z,19.05
2018-12-01T05:13:48.060Z,19.30
2018-12-01T05:16:18.553Z,16.35
2018-12-01T05:19:06.124Z,24.20
2018-12-01T05:21:37.076Z,17.48
2018-12-01T05:24:07.928Z,16.57
2018-12-01T05:26:38.820Z,23.30
2018-12-01T05:29:09.849Z,20.82
2018-12-01T05:31:40.451Z,17.85
2018-12-01T05:34:13.377Z,18.23
2018-12-01T05:36:44.651Z,24.23
2018-12-01T05:39:15.661Z,18.85
2018-12-01T05:41:46.498Z,16.65
2018-12-01T05:44:17.362Z,17.87
2018-12-01T05:46:48.134Z,17.45
2018-12-01T05:49:19.770Z,16.77
2018-12-01T05:51:51.873Z,15.15
2018-12-01T05:54:22.574Z,16.00
2018-12-01T05:56:54.297Z,16.27
2018-12-01T05:59:25.015Z,21.68
2018-12-01T06:01:56.388Z,19.97
2018-12-01T06:04:27.098Z,21.23
2018-12-01T06:06:58.240Z,13.90
2018-12-01T06:09:28.841Z,16.80
2018-12-01T06:11:59.285Z,19.65
2018-12-01T06:14:29.940Z,19.37
2018-12-01T06:17:01.453Z,20.83
2018-12-01T06:19:34.065Z,17.90
2018-12-01T06:22:08.755Z,18.75
2018-12-01T06:24:39.765Z,19.70
2018-12-01T06:27:10.366Z,21.60
2018-12-01T06:29:42.128Z,27.07
2018-12-01T06:32:13.078Z,21.97
2018-12-01T06:34:43.514Z,21.17
2018-12-01T06:37:16.902Z,22.35
2018-12-01T06:39:47.456Z,19.17
2018-12-01T06:42:20.110Z,20.37
2018-12-01T06:44:50.895Z,17.87
2018-12-01T06:47:23.389Z,18.17
2018-12-01T06:49:57.567Z,17.15
2018-12-01T06:52:28.443Z,17.02
2018-12-01T06:54:59.353Z,18.03
2018-12-01T06:57:31.243Z,20.43
2018-12-01T07:00:01.940Z,17.35
2018-12-01T07:02:34.799Z,19.33
2018-12-01T07:05:10.290Z,18.13
2018-12-01T07:07:45.669Z,21.27
2018-12-01T07:10:26.120Z,14.97
2018-12-01T07:13:05.376Z,20.35
2018-12-01T07:15:40.416Z,17.25
2018-12-01T07:18:31.402Z,16.45
2018-12-01T07:21:03.757Z,19.53
2018-12-01T07:23:37.334Z,19.87
2018-12-01T07:26:10.880Z,18.67
2018-12-01T07:28:51.176Z,16.27
2018-12-01T07:31:21.602Z,15.90
2018-12-01T07:33:52.436Z,18.40
2018-12-01T07:36:25.133Z,15.43
2018-12-01T07:38:57.070Z,15.20
2018-12-01T07:41:27.814Z,18.23
2018-12-01T07:44:02.162Z,16.90
2018-12-01T07:46:38.811Z,18.43
2018-12-01T07:58:36.709Z,15.97
2018-12-01T08:01:07.450Z,21.10
2018-12-01T08:03:38.264Z,17.50
2018-12-01T08:06:09.148Z,24.93
2018-12-01T08:08:42.696Z,18.67
2018-12-01T08:11:13.491Z,24.47
2018-12-01T08:13:46.210Z,23.07
2018-12-01T08:16:19.038Z,18.63
2018-12-01T08:18:49.745Z,23.10
2018-12-01T08:21:20.968Z,20.37
2018-12-01T08:23:51.612Z,14.83
2018-12-01T08:26:23.533Z,19.32
2018-12-01T08:28:56.478Z,20.67
2018-12-01T08:31:29.599Z,22.03
2018-12-01T08:33:59.538Z,20.37
2018-12-01T08:36:30.122Z,17.87
2018-12-01T08:39:02.446Z,21.30
2018-12-01T08:41:33.392Z,16.07
2018-12-01T08:44:04.472Z,19.40
2018-12-01T08:46:35.835Z,21.60
2018-12-01T08:49:08.674Z,17.67
2018-12-01T08:51:41.003Z,19.47
2018-12-01T08:54:12.576Z,21.47
2018-12-01T08:56:43.268Z,20.70
2018-12-01T08:59:15.039Z,15.40
2018-12-01T09:01:46.831Z,18.03
2018-12-01T09:04:17.869Z,14.87
2018-12-01T09:06:49.405Z,17.33
2018-12-01T09:09:22.181Z,16.83
2018-12-01T09:11:56.415Z,16.73
2018-12-01T09:14:27.137Z,17.70
2018-12-01T09:16:58.707Z,16.57
2018-12-01T09:19:29.939Z,16.63
2018-12-01T09:22:02.627Z,17.80
2018-12-01T09:24:33.562Z,18.10
2018-12-01T09:27:04.531Z,17.43
2018-12-01T09:29:38.964Z,20.53
2018-12-01T09:32:10.017Z,16.07
2018-12-01T09:34:40.824Z,20.60
2018-12-01T09:37:13.374Z,16.50
2018-12-01T09:39:44.010Z,20.77
2018-12-01T09:42:17.024Z,18.67
2018-12-01T09:44:49.506Z,19.80
2018-12-01T09:47:21.297Z,21.67
2018-12-01T09:49:52.128Z,19.90
2018-12-01T09:52:22.562Z,16.30
2018-12-01T09:54:53.745Z,19.33
2018-12-01T09:57:49.939Z,16.37
2018-12-01T10:00:24.235Z,16.60
2018-12-01T10:02:55.122Z,19.43
2018-12-01T10:05:25.883Z,19.63
2018-12-01T10:07:56.987Z,20.87
2018-12-01T10:10:27.810Z,24.87
2018-12-01T10:12:59.460Z,19.33
2018-12-01T10:15:32.357Z,20.03
2018-12-01T10:18:03.489Z,18.57
2018-12-01T10:20:35.666Z,19.90
2018-12-01T10:23:12.238Z,18.03
2018-12-01T10:25:43.112Z,21.50
2018-12-01T10:28:15.516Z,18.80
2018-12-01T10:30:46.516Z,20.80
2018-12-01T10:33:17.100Z,17.87
2018-12-01T10:35:48.475Z,23.30
2018-12-01T10:38:19.375Z,18.03
2018-12-01T10:40:50.516Z,20.67
2018-12-01T10:43:21.922Z,21.90
2018-12-01T10:45:52.893Z,21.37
2018-12-01T10:48:24.127Z,18.23
2018-12-01T10:50:55.069Z,24.50
2018-12-01T10:53:26.508Z,20.07
2018-12-01T10:55:57.535Z,21.50
2018-12-01T10:58:28.344Z,19.10
2018-12-01T11:01:04.367Z,18.13
2018-12-01T11:03:44.972Z,22.47
2018-12-01T11:06:18.491Z,18.87
2018-12-01T11:08:50.237Z,22.03
2018-12-01T11:11:21.942Z,22.67
2018-12-01T11:13:53.228Z,24.80
2018-12-01T11:16:24.518Z,20.37
2018-12-01T11:18:55.979Z,19.47
2018-12-01T11:21:27.364Z,17.63
2018-12-01T11:23:59.181Z,25.30
2018-12-01T11:26:29.997Z,20.90
2018-12-01T11:29:00.764Z,22.03
2018-12-01T11:31:31.641Z,24.03
2018-12-01T11:34:02.368Z,20.47
2018-12-01T11:36:33.455Z,19.03
2018-12-01T11:39:06.296Z,21.50
2018-12-01T11:41:37.716Z,21.20
2018-12-01T11:44:10.087Z,22.47
2018-12-01T11:46:41.987Z,25.53
2018-12-01T11:49:12.848Z,22.53
2018-12-01T11:51:43.990Z,21.67
2018-12-01T11:54:15.066Z,21.73
2018-12-01T11:56:47.311Z,25.93
2018-12-01T11:59:18.327Z,20.27
2018-12-01T12:01:50.163Z,21.23
2018-12-01T12:04:21.348Z,20.30
2018-12-01T12:06:52.689Z,23.07
2018-12-01T12:09:25.176Z,22.00
2018-12-01T12:11:55.983Z,24.87
2018-12-01T12:14:27.431Z,24.90
2018-12-01T12:16:57.951Z,26.70
2018-12-01T12:19:29.533Z,22.63
2018-12-01T12:22:00.333Z,23.03
2018-12-01T12:24:31.430Z,26.43
2018-12-01T12:27:03.333Z,23.43
2018-12-01T12:29:34.626Z,23.80
2018-12-01T12:32:07.472Z,24.00
2018-12-01T12:34:38.500Z,22.50
2018-12-01T12:37:09.284Z,24.60
2018-12-01T12:39:41.651Z,21.57
2018-12-01T12:42:13.106Z,23.27
2018-12-01T12:44:44.066Z,23.10
2018-12-01T12:47:15.081Z,23.53
2018-12-01T12:49:45.721Z,23.43
2018-12-01T12:52:17.176Z,21.67
2018-12-01T12:54:48.689Z,23.93
2018-12-01T12:57:20.756Z,22.57
2018-12-01T12:59:53.161Z,35.13
2018-12-01T13:02:25.321Z,23.47
2018-12-01T13:04:56.798Z,21.07
2018-12-01T13:07:28.888Z,21.17
2018-12-01T13:10:00.289Z,25.13
2018-12-01T13:12:31.232Z,21.00
2018-12-01T13:15:03.550Z,25.17
2018-12-01T13:17:34.290Z,20.60
2018-12-01T13:20:08.507Z,23.27
2018-12-01T13:22:39.106Z,19.93
2018-12-01T13:25:12.594Z,21.70
2018-12-01T13:27:50.967Z,21.37
2018-12-01T13:30:24.758Z,21.67
2018-12-01T13:32:58.576Z,22.97
2018-12-01T13:35:30.727Z,26.93
2018-12-01T13:38:01.625Z,22.97
2018-12-01T13:40:32.262Z,23.60
2018-12-01T13:43:02.979Z,25.27
2018-12-01T13:45:33.814Z,19.60
2018-12-01T13:48:07.134Z,23.27
2018-12-01T13:50:38.636Z,25.90
2018-12-01T13:53:14.252Z,22.73
2018-12-01T13:55:46.398Z,23.07
2018-12-01T13:58:17.115Z,21.00
2018-12-01T14:00:48.206Z,22.00
2018-12-01T14:03:19.715Z,24.17
2018-12-01T14:05:52.222Z,22.83
2018-12-01T14:08:23.132Z,26.10
2018-12-01T14:10:54.175Z,24.73
2018-12-01T14:13:25.201Z,25.97
2018-12-01T14:15:56.038Z,30.37
2018-12-01T14:18:27.181Z,21.07
2018-12-01T14:20:57.909Z,21.73
2018-12-01T14:23:28.812Z,24.03
2018-12-01T14:26:11.272Z,28.33
2018-12-01T14:28:42.008Z,24.90
2018-12-01T14:31:14.501Z,24.00
2018-12-01T14:33:46.109Z,24.37
2018-12-01T14:36:17.029Z,22.53
2018-12-01T14:38:49.765Z,24.17
2018-12-01T14:41:24.005Z,26.67
2018-12-01T14:43:54.928Z,24.17
2018-12-01T14:46:25.944Z,23.50
2018-12-01T14:48:58.831Z,23.67
2018-12-01T14:51:31.264Z,27.20
2018-12-01T14:54:03.018Z,23.67
2018-12-01T14:56:33.935Z,25.00
2018-12-01T14:59:04.918Z,22.73
2018-12-01T15:01:35.750Z,21.27
2018-12-01T15:04:12.788Z,23.50
2018-12-01T15:06:47.416Z,26.00
2018-12-01T15:09:24.407Z,26.63
2018-12-01T15:11:57.925Z,24.93
2018-12-01T15:14:34.347Z,27.73
2018-12-01T15:17:07.746Z,22.67
2018-12-01T15:19:42.570Z,25.47
2018-12-01T15:22:19.655Z,28.43
2018-12-01T15:24:51.943Z,26.80
2018-12-01T15:27:25.403Z,30.93
2018-12-01T15:30:00.215Z,31.50
2018-12-01T15:32:35.805Z,28.37
2018-12-01T15:35:12.968Z,29.73
2018-12-01T15:37:48.447Z,30.80
2018-12-01T15:40:26.348Z,25.73
2018-12-01T15:43:02.704Z,28.33
2018-12-01T15:45:35.783Z,27.33
2018-12-01T15:48:10.676Z,30.40
2018-12-01T15:50:45.583Z,28.63
2018-12-01T15:53:21.526Z,25.77
2018-12-01T15:55:56.835Z,28.53
2018-12-01T15:58:31.022Z,27.40
2018-12-01T16:01:08.371Z,26.73
2018-12-01T16:03:40.484Z,28.00
2018-12-01T16:06:12.375Z,30.30
2018-12-01T16:08:43.585Z,29.40
2018-12-01T16:11:14.743Z,29.37
2018-12-01T16:13:45.818Z,30.17
2018-12-01T16:16:17.634Z,30.77
2018-12-01T16:18:50.306Z,34.40
2018-12-01T16:21:22.618Z,33.07
2018-12-01T16:23:54.539Z,37.67
2018-12-01T16:26:25.712Z,36.77
2018-12-01T16:28:56.811Z,33.67
2018-12-01T16:31:32.012Z,30.77
2018-12-01T16:34:02.942Z,35.47
2018-12-01T16:36:33.723Z,30.33
2018-12-01T16:39:06.229Z,36.67
2018-12-01T16:41:38.665Z,30.47
2018-12-01T16:44:09.549Z,30.53
2018-12-01T16:46:41.302Z,25.63
2018-12-01T16:49:12.850Z,26.63
2018-12-01T16:51:44.296Z,25.40
2018-12-01T16:54:25.623Z,27.80
2018-12-01T16:56:56.646Z,26.60
2018-12-01T16:59:29.038Z,27.67
2018-12-01T17:02:01.684Z,26.40
2018-12-01T17:04:35.651Z,27.87
2018-12-01T17:07:06.571Z,27.97
2018-12-01T17:09:37.576Z,25.87
2018-12-01T17:12:08.983Z,28.83
2018-12-01T17:14:39.554Z,28.93
2018-12-01T17:17:11.336Z,30.37
2018-12-01T17:19:43.096Z,26.37
2018-12-01T17:22:22.805Z,26.97
2018-12-01T17:24:55.989Z,24.37
2018-12-01T17:27:32.450Z,26.20
2018-12-01T17:30:42.324Z,28.20
2018-12-01T17:33:16.791Z,32.50
2018-12-01T17:35:50.707Z,29.20
2018-12-01T17:38:29.296Z,32.57
2018-12-01T17:41:13.447Z,32.43
2018-12-01T17:43:56.863Z,28.47
2018-12-01T17:46:34.834Z,27.47
2018-12-01T17:49:10.260Z,27.23
2018-12-01T17:51:44.404Z,30.73
2018-12-01T17:54:19.575Z,30.90
2018-12-01T17:56:52.484Z,29.20
2018-12-01T17:59:26.902Z,24.53
2018-12-01T18:27:01.560Z,29.77
2018-12-01T18:29:34.466Z,32.90
2018-12-01T18:32:06.244Z,30.40
2018-12-01T18:34:40.556Z,34.53
2018-12-01T18:37:11.825Z,37.50
2018-12-01T18:39:44.500Z,31.37
2018-12-01T18:42:15.402Z,37.53
2018-12-01T18:44:46.530Z,34.17
2018-12-01T18:47:18.736Z,37.73
2018-12-01T18:49:49.560Z,30.53
2018-12-01T18:52:20.596Z,36.33
2018-12-01T18:54:53.268Z,36.90
2018-12-01T18:57:24.999Z,34.10
2018-12-01T18:59:55.587Z,33.47
2018-12-01T19:02:27.049Z,31.17
2018-12-01T19:04:58.022Z,32.70
2018-12-01T19:07:29.598Z,34.07
2018-12-01T19:10:01.657Z,32.93
2018-12-01T19:12:32.235Z,35.00
2018-12-01T19:15:04.533Z,39.70
2018-12-01T19:17:35.935Z,33.27
2018-12-01T19:20:13.649Z,30.80
2018-12-01T19:22:46.412Z,33.40
2018-12-01T19:25:19.262Z,37.67
2018-12-01T19:27:53.964Z,38.23
2018-12-01T19:30:25.970Z,34.30
2018-12-01T19:33:01.492Z,33.57
2018-12-01T19:35:36.836Z,32.57
2018-12-01T19:38:10.760Z,38.27
2018-12-01T19:40:43.154Z,36.67
2018-12-01T19:43:14.577Z,37.73
2018-12-01T19:45:47.016Z,36.20
2018-12-01T19:48:18.214Z,32.17
2018-12-01T19:50:50.161Z,35.20
2018-12-01T19:53:21.972Z,38.43
2018-12-01T19:55:55.687Z,35.50
2018-12-01T19:58:29.931Z,33.80
2018-12-01T20:01:02.349Z,36.50
2018-12-01T20:03:35.046Z,36.27
2018-12-01T20:06:07.154Z,34.27
2018-12-01T20:08:38.286Z,29.83
2018-12-01T20:11:10.774Z,31.67
2018-12-01T20:13:45.678Z,33.67
2018-12-01T20:16:34.887Z,32.83
2018-12-01T20:19:09.064Z,30.27
2018-12-01T20:21:39.917Z,40.03
2018-12-01T20:24:11.514Z,39.53
2018-12-01T20:26:43.963Z,37.40
2018-12-01T20:29:16.994Z,35.93
2018-12-01T20:31:50.121Z,33.60
2018-12-01T20:34:21.424Z,34.57
2018-12-01T20:36:56.977Z,34.73
2018-12-01T20:39:34.717Z,31.13
2018-12-01T20:42:05.881Z,39.67
2018-12-01T20:44:37.828Z,35.57
2018-12-01T20:47:08.778Z,33.90
2018-12-01T20:49:40.245Z,38.97
2018-12-01T20:52:11.043Z,37.30
2018-12-01T20:54:48.749Z,32.87
2018-12-01T20:57:27.709Z,37.13
2018-12-01T21:00:01.522Z,38.33
2018-12-01T21:02:35.670Z,37.30
2018-12-01T21:05:12.144Z,29.97
2018-12-01T21:07:44.302Z,37.97
2018-12-01T21:10:25.954Z,30.67
2018-12-01T21:12:58.324Z,33.40
2018-12-01T21:15:29.683Z,34.10
2018-12-01T21:18:02.558Z,40.17
2018-12-01T21:20:34.868Z,38.07
2018-12-01T21:23:07.117Z,34.13
2018-12-01T21:25:38.130Z,32.13
2018-12-01T21:28:09.790Z,34.73
2018-12-01T21:30:43.838Z,32.03
2018-12-01T21:33:22.128Z,31.13
2018-12-01T21:35:54.890Z,33.73
2018-12-01T21:38:26.718Z,31.40
2018-12-01T21:40:59.887Z,37.93
2018-12-01T21:43:32.264Z,39.93
2018-12-01T21:46:08.650Z,36.77
2018-12-01T21:48:42.153Z,31.00
2018-12-01T21:51:15.988Z,37.07
2018-12-01T21:53:50.898Z,35.03
2018-12-01T21:56:24.492Z,39.60
2018-12-01T21:58:57.945Z,33.87
2018-12-01T22:01:29.800Z,37.27
2018-12-01T22:04:04.300Z,36.40
2018-12-01T22:06:37.514Z,35.33
2018-12-01T22:09:13.532Z,36.47
2018-12-01T22:11:46.851Z,43.47
2018-12-01T22:14:21.324Z,31.50
2018-12-01T22:16:52.530Z,37.37
2018-12-01T22:19:25.517Z,34.83
2018-12-01T22:21:58.409Z,33.67
2018-12-01T22:24:30.062Z,37.23
2018-12-01T22:27:04.440Z,40.47
2018-12-01T22:29:36.588Z,38.53
2018-12-01T22:32:08.390Z,36.87
2018-12-01T22:34:40.819Z,32.50
2018-12-01T22:37:13.076Z,35.27
2018-12-01T22:39:48.988Z,37.73
2018-12-01T22:42:19.784Z,38.27
2018-12-01T22:44:53.415Z,40.80
2018-12-01T22:47:25.910Z,37.83
2018-12-01T22:49:56.897Z,34.30
2018-12-01T22:52:28.190Z,37.97
2018-12-01T22:54:59.972Z,36.13
2018-12-01T22:57:31.009Z,36.33
2018-12-01T23:00:04.608Z,36.87
2018-12-01T23:02:35.724Z,36.97
2018-12-01T23:05:06.686Z,36.63
2018-12-01T23:07:39.325Z,39.57
2018-12-01T23:10:15.754Z,38.47
2018-12-01T23:12:47.815Z,35.53
2018-12-01T23:15:19.996Z,42.10
2018-12-01T23:17:52.434Z,39.27
2018-12-01T23:20:24.532Z,35.13
2018-12-01T23:22:56.669Z,47.33
2018-12-01T23:25:27.657Z,37.60
2018-12-01T23:27:58.624Z,35.27
2018-12-01T23:30:30.897Z,39.53
2018-12-01T23:33:24.964Z,44.33
2018-12-01T23:35:56.076Z,41.23
2018-12-01T23:38:28.399Z,38.07
2018-12-01T23:40:59.551Z,39.80
2018-12-01T23:43:30.375Z,43.03
2018-12-01T23:46:04.192Z,36.60
2018-12-01T23:48:43.067Z,35.57
2018-12-01T23:51:14.378Z,39.97
2018-12-01T23:53:49.515Z,39.40
2018-12-01T23:56:20.304Z,40.67
2018-12-01T23:58:51.035Z,35.43
